Time;durP1;ratioP1;P1;durP2;ratioP2;P2;SDS_P1;SDS_P2;PMS_P1;PMS_P2;Temp;Humidity;BMP_temperature;BMP_pressure;BME280_temperature;BME280_humidity;BME280_pressure;Samples;Min_cycle;Max_cycle;Signal;HPM_P1;HPM_P2
2022/03/21 00:00:40;;;;;;;2.90;2.03;;;11.90;1.00;;;;;;5095016;28;20263;-74
2022/03/21 00:03:09;;;;;;;3.47;1.30;;;11.90;1.00;;;;;;5095038;28;20251;-74
2022/03/21 00:05:37;;;;;;;4.95;1.73;;;12.00;1.00;;;;;;5094750;28;20250;-73
2022/03/21 00:08:04;;;;;;;7.80;1.92;;;12.10;1.00;;;;;;5094555;28;20205;-76
2022/03/21 00:10:33;;;;;;;4.35;1.60;;;12.10;1.00;;;;;;5094521;28;20251;-74
2022/03/21 00:13:01;;;;;;;2.87;1.70;;;12.00;1.00;;;;;;5094283;28;20293;-71
2022/03/21 00:15:29;;;;;;;1.73;1.63;;;12.10;1.00;;;;;;5094297;28;20208;-73
2022/03/21 00:17:56;;;;;;;2.30;1.53;;;12.00;1.00;;;;;;5093572;28;20240;-74
2022/03/21 00:20:25;;;;;;;3.90;2.03;;;11.90;1.00;;;;;;5094217;28;20237;-74
2022/03/21 00:22:53;;;;;;;4.77;1.63;;;11.90;1.00;;;;;;5093854;28;20211;-72
2022/03/21 00:25:20;;;;;;;2.40;1.42;;;12.00;1.00;;;;;;5094198;28;20292;-72
2022/03/21 00:27:47;;;;;;;3.95;2.15;;;12.00;1.00;;;;;;5093720;28;20202;-74
2022/03/21 00:30:14;;;;;;;2.80;1.70;;;12.00;1.00;;;;;;5093862;28;20665;-76
2022/03/21 00:32:42;;;;;;;4.93;2.13;;;12.00;1.00;;;;;;5093620;28;20224;-74
2022/03/21 00:35:12;;;;;;;8.17;2.70;;;12.00;1.00;;;;;;5093679;28;20204;-74
2022/03/21 00:37:40;;;;;;;3.87;1.50;;;12.00;1.00;;;;;;5094018;28;20240;-74
2022/03/21 00:40:09;;;;;;;4.33;1.90;;;12.00;1.00;;;;;;5094240;28;20246;-74
2022/03/21 00:42:37;;;;;;;5.10;2.13;;;12.10;1.00;;;;;;5094142;28;20684;-75
2022/03/21 00:45:06;;;;;;;3.97;1.73;;;12.00;1.00;;;;;;5093559;28;20255;-72
2022/03/21 00:47:33;;;;;;;4.80;1.90;;;11.90;1.00;;;;;;5093881;28;20262;-74
2022/03/21 00:50:00;;;;;;;4.07;1.80;;;11.90;1.00;;;;;;5092989;28;20266;-74
2022/03/21 00:52:28;;;;;;;2.15;1.30;;;12.00;1.00;;;;;;5093556;28;20617;-75
2022/03/21 00:54:57;;;;;;;4.38;1.88;;;11.80;1.00;;;;;;5093272;28;20287;-76
2022/03/21 00:57:24;;;;;;;3.80;1.93;;;11.90;1.00;;;;;;5093469;28;20229;-75
2022/03/21 00:59:51;;;;;;;4.07;1.37;;;11.80;1.00;;;;;;5093054;28;20209;-74
2022/03/21 01:02:18;;;;;;;3.93;1.60;;;12.00;1.00;;;;;;5080829;28;20735;-74
2022/03/21 01:04:45;;;;;;;3.63;1.77;;;12.00;1.00;;;;;;5072672;28;20252;-72
2022/03/21 01:07:12;;;;;;;3.78;1.67;;;11.90;1.00;;;;;;5073020;28;20259;-76
2022/03/21 01:09:39;;;;;;;17.45;2.78;;;11.90;1.00;;;;;;5072972;28;20680;-72
2022/03/21 01:12:09;;;;;;;4.05;1.65;;;12.00;1.00;;;;;;5073185;28;20202;-73
2022/03/21 01:14:36;;;;;;;2.80;1.67;;;11.90;1.00;;;;;;5073233;28;20289;-72
2022/03/21 01:17:03;;;;;;;5.50;2.43;;;12.00;1.00;;;;;;5072707;28;20321;-73
2022/03/21 01:19:31;;;;;;;6.97;2.53;;;12.00;1.00;;;;;;5072634;28;20232;-72
2022/03/21 01:21:59;;;;;;;3.70;1.77;;;12.00;1.00;;;;;;5072394;28;20206;-72
2022/03/21 01:24:26;;;;;;;3.27;1.97;;;11.90;1.00;;;;;;5072692;28;20202;-71
2022/03/21 01:26:53;;;;;;;6.33;2.00;;;11.90;1.00;;;;;;5072253;28;20267;-72
2022/03/21 01:29:21;;;;;;;10.20;2.50;;;12.00;1.00;;;;;;5073013;28;20289;-76
2022/03/21 01:31:48;;;;;;;4.33;2.80;;;12.00;1.00;;;;;;5072258;28;20669;-76
2022/03/21 01:34:15;;;;;;;5.27;2.23;;;12.10;1.00;;;;;;5072444;28;20346;-72
2022/03/21 01:36:42;;;;;;;3.22;2.05;;;12.00;1.00;;;;;;5072187;28;20230;-73
2022/03/21 01:39:09;;;;;;;5.13;1.47;;;12.00;1.00;;;;;;5072306;28;20206;-71
2022/03/21 01:41:37;;;;;;;10.70;2.33;;;12.00;1.00;;;;;;5072668;28;20259;-71
2022/03/21 01:44:06;;;;;;;5.23;2.30;;;12.00;1.00;;;;;;5072511;28;20206;-72
2022/03/21 01:46:35;;;;;;;8.98;2.65;;;12.00;1.00;;;;;;5072330;28;20738;-71
2022/03/21 01:49:04;;;;;;;5.18;2.53;;;12.00;1.00;;;;;;5071701;28;20661;-73
2022/03/21 01:51:31;;;;;;;4.67;2.70;;;11.90;1.00;;;;;;5071980;28;20210;-75
2022/03/21 01:56:47;;;;;;;5.90;2.00;;;12.00;1.00;;;;;;5071102;28;20709;-72
2022/03/21 01:59:15;;;;;;;5.77;2.27;;;11.90;1.00;;;;;;5072024;28;20256;-73
2022/03/21 02:01:44;;;;;;;8.13;2.35;;;11.90;1.00;;;;;;5071358;28;20673;-72
2022/03/21 02:04:11;;;;;;;3.22;2.05;;;11.90;1.00;;;;;;5071929;28;20202;-74
2022/03/21 02:06:39;;;;;;;9.60;2.07;;;11.90;1.00;;;;;;5072134;28;20630;-70
2022/03/21 02:09:08;;;;;;;7.40;2.08;;;11.90;1.00;;;;;;5072279;28;20229;-76
2022/03/21 02:11:35;;;;;;;6.70;3.30;;;11.90;1.00;;;;;;5072158;28;20580;-71
2022/03/21 02:14:04;;;;;;;6.63;2.50;;;11.90;1.00;;;;;;5071308;28;20210;-72
2022/03/21 02:16:34;;;;;;;4.83;2.70;;;11.80;1.00;;;;;;5071400;28;20279;-72
2022/03/21 02:19:07;;;;;;;7.47;2.67;;;11.80;1.00;;;;;;5071054;28;20267;-74
2022/03/21 02:21:42;;;;;;;4.40;2.73;;;11.80;1.00;;;;;;5072011;28;20234;-73
2022/03/21 02:24:16;;;;;;;5.17;2.40;;;11.80;1.00;;;;;;5071474;28;20248;-72
2022/03/21 02:26:45;;;;;;;4.28;2.58;;;11.80;1.00;;;;;;5071088;28;20815;-73
2022/03/21 02:29:14;;;;;;;4.60;2.17;;;11.80;1.00;;;;;;5071429;28;20675;-71
2022/03/21 02:31:41;;;;;;;6.17;1.93;;;11.90;1.00;;;;;;5070883;28;20666;-71
2022/03/21 02:34:09;;;;;;;6.43;2.47;;;11.90;1.00;;;;;;5071694;28;20210;-71
2022/03/21 02:36:37;;;;;;;3.88;1.75;;;11.80;1.00;;;;;;5071631;28;20252;-72
2022/03/21 02:39:04;;;;;;;4.03;2.47;;;11.80;1.00;;;;;;5071222;28;20673;-74
2022/03/21 02:41:31;;;;;;;3.27;1.93;;;11.80;1.00;;;;;;5071182;28;20206;-73
2022/03/21 02:44:01;;;;;;;3.93;1.83;;;11.80;1.00;;;;;;5070778;28;20773;-73
2022/03/21 02:46:28;;;;;;;6.67;1.93;;;11.70;1.00;;;;;;5070765;28;20586;-72
2022/03/21 02:48:57;;;;;;;7.43;2.87;;;11.70;1.00;;;;;;5070805;28;20727;-72
2022/03/21 02:51:28;;;;;;;4.70;1.40;;;11.70;1.00;;;;;;5070951;28;20288;-72
2022/03/21 02:53:55;;;;;;;4.50;2.17;;;11.70;1.00;;;;;;5070680;28;20589;-72
2022/03/21 02:56:22;;;;;;;6.77;2.80;;;11.70;1.00;;;;;;5070799;28;20582;-73
2022/03/21 02:58:50;;;;;;;21.53;2.97;;;11.70;1.00;;;;;;5070653;28;20210;-71
2022/03/21 03:01:19;;;;;;;4.70;2.17;;;11.80;1.00;;;;;;5070755;28;20608;-74
2022/03/21 03:03:47;;;;;;;5.70;2.43;;;11.70;1.00;;;;;;5070571;28;20252;-73
2022/03/21 03:06:14;;;;;;;3.50;1.80;;;11.70;1.00;;;;;;5070687;28;20704;-72
2022/03/21 03:08:42;;;;;;;3.10;2.20;;;11.70;1.00;;;;;;5069790;28;20209;-71
2022/03/21 03:11:09;;;;;;;4.63;2.07;;;11.80;1.00;;;;;;5070800;28;20734;-74
2022/03/21 03:13:36;;;;;;;6.07;2.93;;;11.70;1.00;;;;;;5071237;28;20206;-73
2022/03/21 03:16:04;;;;;;;5.20;2.40;;;11.60;1.00;;;;;;5070480;28;20226;-73
2022/03/21 03:18:32;;;;;;;4.50;2.50;;;11.70;1.00;;;;;;5070622;28;20234;-74
2022/03/21 03:21:00;;;;;;;2.77;1.70;;;11.70;1.00;;;;;;5070426;28;20206;-74
2022/03/21 03:23:29;;;;;;;3.67;1.90;;;11.70;1.00;;;;;;5070630;28;20202;-79
2022/03/21 03:26:00;;;;;;;4.03;2.80;;;11.70;1.00;;;;;;5070636;28;20202;-75
2022/03/21 03:28:29;;;;;;;4.70;1.80;;;11.70;1.00;;;;;;5070723;28;20252;-73
2022/03/21 03:30:57;;;;;;;3.03;2.00;;;11.70;1.00;;;;;;5070153;28;20295;-73
2022/03/21 03:33:24;;;;;;;7.07;2.93;;;11.60;1.00;;;;;;5070617;28;20248;-73
2022/03/21 03:35:53;;;;;;;3.53;2.33;;;11.70;1.00;;;;;;5070126;28;20202;-73
2022/03/21 03:38:20;;;;;;;5.83;2.20;;;11.70;1.00;;;;;;5070771;28;20237;-72
2022/03/21 03:40:47;;;;;;;7.40;1.87;;;11.70;1.00;;;;;;5070345;28;20198;-73
2022/03/21 03:43:16;;;;;;;8.07;2.40;;;11.70;1.00;;;;;;5070404;28;20255;-72
2022/03/21 03:45:43;;;;;;;5.27;2.67;;;11.60;1.00;;;;;;5070120;28;20245;-75
2022/03/21 03:48:11;;;;;;;5.60;1.70;;;11.50;1.00;;;;;;5070653;28;20205;-76
2022/03/21 03:50:38;;;;;;;6.93;3.37;;;11.60;1.00;;;;;;5070292;28;20214;-77
2022/03/21 03:53:06;;;;;;;4.40;2.20;;;11.70;1.00;;;;;;5081030;28;20208;-76
2022/03/21 03:55:33;;;;;;;2.30;1.83;;;11.60;1.00;;;;;;5071639;28;20210;-76
2022/03/21 03:58:00;;;;;;;5.47;1.77;;;11.70;1.00;;;;;;5069728;28;20276;-77
2022/03/21 04:00:27;;;;;;;5.17;2.23;;;11.70;1.00;;;;;;5070607;28;20619;-76
2022/03/21 04:05:39;;;;;;;5.67;2.17;;;11.70;1.00;;;;;;5070447;28;20205;-77
2022/03/21 04:08:09;;;;;;;4.40;2.27;;;11.60;1.00;;;;;;5070528;28;20202;-76
2022/03/21 04:10:36;;;;;;;3.70;2.00;;;11.70;1.00;;;;;;5079571;28;20205;-74
2022/03/21 04:13:03;;;;;;;3.17;2.47;;;11.70;1.00;;;;;;5089890;28;20231;-76
2022/03/21 04:15:30;;;;;;;5.80;2.37;;;11.60;1.00;;;;;;5090660;28;20259;-74
2022/03/21 04:18:00;;;;;;;9.83;3.70;;;11.70;1.00;;;;;;5089408;28;20707;-76
2022/03/21 04:20:29;;;;;;;9.23;2.77;;;11.70;1.00;;;;;;5094115;28;20251;-75
2022/03/21 04:22:56;;;;;;;7.10;2.90;;;11.70;1.00;;;;;;5094005;28;20231;-73
2022/03/21 04:25:24;;;;;;;5.80;2.27;;;11.60;1.00;;;;;;5094143;28;20647;-72
2022/03/21 04:27:51;;;;;;;8.27;2.83;;;11.70;1.00;;;;;;5088291;28;20208;-72
2022/03/21 04:30:19;;;;;;;8.30;4.17;;;11.70;1.00;;;;;;5078847;28;20665;-75
2022/03/21 04:32:46;;;;;;;8.57;2.87;;;11.70;1.00;;;;;;5074470;28;20754;-71
2022/03/21 04:35:13;;;;;;;6.13;2.43;;;11.80;1.00;;;;;;5094148;28;20267;-73
2022/03/21 04:37:41;;;;;;;7.20;2.47;;;11.60;1.00;;;;;;5093845;28;20225;-70
2022/03/21 04:40:09;;;;;;;4.07;2.40;;;11.70;1.00;;;;;;5094231;28;20288;-72
2022/03/21 04:42:40;;;;;;;4.23;2.07;;;11.70;1.00;;;;;;5093858;28;20258;-72
2022/03/21 04:45:08;;;;;;;3.60;2.37;;;11.80;1.00;;;;;;5091276;28;20202;-73
2022/03/21 04:47:35;;;;;;;4.50;2.57;;;11.70;1.00;;;;;;5073801;28;20555;-73
2022/03/21 04:50:02;;;;;;;3.07;1.77;;;11.80;1.00;;;;;;5073055;28;20626;-83
2022/03/21 04:52:29;;;;;;;4.73;2.67;;;11.80;1.00;;;;;;5073140;28;20210;-77
2022/03/21 04:54:56;;;;;;;5.30;2.67;;;11.90;1.00;;;;;;5075948;28;20202;-74
2022/03/21 04:57:25;;;;;;;4.10;2.03;;;11.70;1.00;;;;;;5091227;28;20282;-73
2022/03/21 04:59:53;;;;;;;4.67;1.80;;;11.90;1.00;;;;;;5088007;28;20198;-78
2022/03/21 05:02:20;;;;;;;3.47;2.20;;;11.80;1.00;;;;;;5073290;28;20212;-71
2022/03/21 05:04:47;;;;;;;4.67;2.80;;;11.80;1.00;;;;;;5073151;28;20202;-75
2022/03/21 05:07:16;;;;;;;5.97;2.33;;;11.80;1.00;;;;;;5072932;28;20572;-78
2022/03/21 05:09:43;;;;;;;2.50;2.00;;;11.70;1.00;;;;;;5072894;28;20271;-76
2022/03/21 05:12:12;;;;;;;5.00;2.30;;;11.80;1.00;;;;;;5078762;28;20213;-72
2022/03/21 05:14:39;;;;;;;2.83;2.37;;;11.80;1.00;;;;;;5089331;28;20629;-69
2022/03/21 05:17:09;;;;;;;3.63;2.57;;;11.80;1.00;;;;;;5092923;28;20239;-75
2022/03/21 05:19:36;;;;;;;4.43;2.80;;;11.80;1.00;;;;;;5093287;28;20205;-75
2022/03/21 05:22:04;;;;;;;7.57;3.30;;;11.80;1.00;;;;;;5092231;28;20206;-74
2022/03/21 05:35:56;;;;;;;5.90;3.47;;;11.80;1.00;;;;;;5092872;28;20209;-74
2022/03/21 05:38:24;;;;;;;4.17;2.40;;;11.80;1.00;;;;;;5092927;28;20273;-76
2022/03/21 05:40:52;;;;;;;3.40;1.90;;;11.80;1.00;;;;;;5090508;28;20197;-71
2022/03/21 05:43:19;;;;;;;4.63;2.73;;;11.70;1.00;;;;;;5092433;28;20197;-73
2022/03/21 05:45:49;;;;;;;4.77;2.60;;;11.70;1.00;;;;;;5092166;28;20201;-74
2022/03/21 05:51:02;;;;;;;5.57;2.70;;;11.70;1.00;;;;;;5092069;28;20319;-75
2022/03/21 05:53:29;;;;;;;3.70;1.80;;;11.70;1.00;;;;;;5091587;28;20210;-73
2022/03/21 05:55:58;;;;;;;2.90;2.07;;;11.80;1.00;;;;;;5091827;28;20229;-72
2022/03/21 05:58:25;;;;;;;5.37;2.80;;;11.80;1.00;;;;;;5092340;28;20233;-73
2022/03/21 06:00:52;;;;;;;6.33;2.63;;;11.80;1.00;;;;;;5091547;28;20197;-72
2022/03/21 06:03:20;;;;;;;4.97;2.00;;;11.80;1.00;;;;;;5091450;28;20197;-75
2022/03/21 06:05:47;;;;;;;5.77;2.07;;;11.80;1.00;;;;;;5091444;28;20726;-73
2022/03/21 06:08:14;;;;;;;3.00;2.03;;;11.80;1.00;;;;;;5091896;28;20201;-74
2022/03/21 06:10:42;;;;;;;2.93;2.07;;;11.80;1.00;;;;;;5091962;28;20197;-73
2022/03/21 06:13:10;;;;;;;2.47;1.97;;;11.80;1.00;;;;;;5091980;28;20220;-76
2022/03/21 06:15:37;;;;;;;4.27;2.27;;;11.80;1.00;;;;;;5092293;28;20197;-75
2022/03/21 06:18:09;;;;;;;11.17;2.20;;;11.80;1.00;;;;;;5091960;28;20229;-75
2022/03/21 06:20:39;;;;;;;3.60;2.05;;;11.80;1.00;;;;;;5092284;28;20267;-76
2022/03/21 06:23:06;;;;;;;4.77;2.10;;;11.80;1.00;;;;;;5091454;28;20653;-74
2022/03/21 06:25:33;;;;;;;3.93;2.27;;;11.90;1.00;;;;;;5091955;28;20213;-74
2022/03/21 06:28:01;;;;;;;5.07;2.37;;;11.90;1.00;;;;;;5091473;28;20210;-76
2022/03/21 06:30:29;;;;;;;2.90;2.00;;;11.90;1.00;;;;;;5092030;28;20290;-75
2022/03/21 06:32:56;;;;;;;5.43;2.03;;;11.90;1.00;;;;;;5091251;28;20244;-74
2022/03/21 06:35:23;;;;;;;3.60;2.67;;;12.00;1.00;;;;;;5077471;28;20673;-77
2022/03/21 06:37:51;;;;;;;4.13;1.90;;;12.00;1.00;;;;;;5080998;28;20233;-74
2022/03/21 06:40:18;;;;;;;4.40;2.13;;;12.10;1.00;;;;;;5090698;28;20270;-77
2022/03/21 06:42:45;;;;;;;2.10;1.90;;;12.20;1.00;;;;;;5091494;28;20206;-78
2022/03/21 06:45:12;;;;;;;6.17;2.10;;;12.10;1.00;;;;;;5084971;28;20267;-75
2022/03/21 06:47:39;;;;;;;3.00;2.70;;;12.20;1.00;;;;;;5087840;28;20262;-72
2022/03/21 06:50:07;;;;;;;2.17;1.85;;;12.20;1.00;;;;;;5087588;28;20214;-73
2022/03/21 06:52:38;;;;;;;3.55;2.85;;;12.20;1.00;;;;;;5090783;28;20254;-74
2022/03/21 06:55:08;;;;;;;2.63;2.30;;;12.30;1.00;;;;;;5090855;28;20209;-78
2022/03/21 06:57:35;;;;;;;3.53;2.00;;;12.30;1.00;;;;;;5091259;28;20247;-73
2022/03/21 07:00:05;;;;;;;3.88;1.85;;;12.40;1.00;;;;;;5090234;28;20254;-72
2022/03/21 07:02:32;;;;;;;4.10;1.90;;;12.40;1.00;;;;;;5084454;28;20242;-73
2022/03/21 07:05:00;;;;;;;1.85;1.52;;;12.50;1.00;;;;;;5078481;28;20205;-70
2022/03/21 07:07:27;;;;;;;2.85;1.52;;;12.50;1.00;;;;;;5074389;28;20259;-71
2022/03/21 07:09:54;;;;;;;4.65;2.42;;;12.60;1.00;;;;;;5088330;28;20224;-72
2022/03/21 07:12:23;;;;;;;4.38;1.67;;;12.60;1.00;;;;;;5085643;28;20198;-71
2022/03/21 07:14:50;;;;;;;2.08;1.40;;;12.70;1.00;;;;;;5081131;28;20213;-72
2022/03/21 07:17:21;;;;;;;4.13;1.45;;;12.70;1.00;;;;;;5076878;28;20202;-73
2022/03/21 07:19:48;;;;;;;2.15;1.30;;;12.70;1.00;;;;;;5072477;28;20363;-72
2022/03/21 07:22:15;;;;;;;4.53;1.65;;;12.80;1.00;;;;;;5076997;28;20266;-71
2022/03/21 07:24:44;;;;;;;2.75;1.27;;;12.90;1.00;;;;;;5082675;28;20742;-71
2022/03/21 07:27:13;;;;;;;2.28;1.80;;;12.90;1.00;;;;;;5078573;28;20261;-72
2022/03/21 07:29:41;;;;;;;3.03;1.80;;;13.00;1.00;;;;;;5084408;28;20209;-72
2022/03/21 07:32:09;;;;;;;3.92;1.50;;;13.00;1.00;;;;;;5082744;28;20209;-73
2022/03/21 07:34:36;;;;;;;1.95;1.13;;;13.20;1.00;;;;;;5078332;28;20251;-73
2022/03/21 07:37:03;;;;;;;3.10;1.27;;;13.20;1.00;;;;;;5081417;28;20246;-73
2022/03/21 07:39:33;;;;;;;2.72;1.10;;;13.30;1.00;;;;;;5070384;28;20254;-72
2022/03/21 07:42:02;;;;;;;2.13;1.67;;;13.30;1.00;;;;;;5089640;28;20206;-72
2022/03/21 07:47:21;;;;;;;2.60;1.20;;;13.40;1.00;;;;;;5070669;28;20201;-71
2022/03/21 07:49:49;;;;;;;3.10;1.33;;;13.70;1.00;;;;;;5069724;28;20214;-69
2022/03/21 07:52:20;;;;;;;3.45;1.05;;;13.60;1.00;;;;;;5086590;28;20194;-73
2022/03/21 07:54:48;;;;;;;2.50;1.10;;;13.70;1.00;;;;;;5086127;28;20669;-73
2022/03/21 07:57:15;;;;;;;3.17;1.02;;;13.60;1.00;;;;;;5090017;28;20213;-71
2022/03/21 07:59:42;;;;;;;1.30;1.20;;;13.80;1.00;;;;;;5075349;28;20729;-72
2022/03/21 08:02:09;;;;;;;2.53;1.23;;;14.00;1.00;;;;;;5074252;28;20334;-71
2022/03/21 08:04:37;;;;;;;3.55;1.10;;;14.60;1.00;;;;;;5076107;28;20206;-70
2022/03/21 08:07:05;;;;;;;3.08;2.10;;;14.20;1.00;;;;;;5078634;28;20276;-73
2022/03/21 08:09:32;;;;;;;1.45;1.35;;;13.90;1.00;;;;;;5092214;28;20213;-73
2022/03/21 08:12:00;;;;;;;2.97;1.73;;;14.00;1.00;;;;;;5079971;28;20210;-71
2022/03/21 08:14:27;;;;;;;3.53;1.45;;;13.80;1.00;;;;;;5094249;28;20208;-72
2022/03/21 08:16:54;;;;;;;1.67;1.48;;;14.10;1.00;;;;;;5081523;28;20587;-71
2022/03/21 08:19:24;;;;;;;1.70;1.33;;;13.90;1.00;;;;;;5081128;28;20709;-72
2022/03/21 08:21:54;;;;;;;2.05;1.10;;;14.20;1.00;;;;;;5084335;28;20206;-72
2022/03/21 08:24:21;;;;;;;1.40;1.23;;;14.30;1.00;;;;;;5081371;28;20209;-70
2022/03/21 08:26:48;;;;;;;1.48;1.38;;;14.50;1.00;;;;;;5073324;28;20221;-70
2022/03/21 08:29:16;;;;;;;2.58;1.13;;;14.40;1.00;;;;;;5090779;28;20209;-72
2022/03/21 08:31:43;;;;;;;2.05;1.25;;;14.30;1.00;;;;;;5084766;28;20285;-69
2022/03/21 08:34:10;;;;;;;5.05;1.40;;;14.70;1.00;;;;;;5079445;28;20205;-71
2022/03/21 08:36:37;;;;;;;3.10;1.33;;;14.20;1.00;;;;;;5085736;28;20214;-71
2022/03/21 08:39:06;;;;;;;3.05;1.73;;;14.70;1.00;;;;;;5081854;28;20226;-74
2022/03/21 08:41:33;;;;;;;2.30;1.30;;;15.10;1.00;;;;;;5092103;28;20650;-73
2022/03/21 08:44:00;;;;;;;1.95;1.15;;;15.30;1.00;;;;;;5085941;28;20213;-75
2022/03/21 08:46:27;;;;;;;2.58;1.13;;;15.10;1.00;;;;;;5088672;28;20667;-74
2022/03/21 08:51:39;;;;;;;2.55;1.30;;;14.80;1.00;;;;;;5074003;28;20205;-74
2022/03/21 08:54:07;;;;;;;1.08;0.70;;;15.50;1.00;;;;;;5073107;28;20198;-74
2022/03/21 08:56:35;;;;;;;2.22;1.35;;;16.30;1.00;;;;;;5073853;28;20293;-75
2022/03/21 08:59:02;;;;;;;2.03;1.13;;;16.50;1.00;;;;;;5080903;28;20228;-79
2022/03/21 09:01:29;;;;;;;3.35;1.10;;;16.30;1.00;;;;;;5080325;28;20256;-74
2022/03/21 09:03:56;;;;;;;1.98;1.45;;;16.00;1.00;;;;;;5092319;28;20270;-78
2022/03/21 09:06:23;;;;;;;2.28;0.95;;;15.50;1.00;;;;;;5076989;28;20264;-73
2022/03/21 09:08:51;;;;;;;2.20;1.42;;;15.50;1.00;;;;;;5076299;28;20259;-79
2022/03/21 09:11:20;;;;;;;2.88;0.90;;;14.90;1.00;;;;;;5091182;28;20202;-73
2022/03/21 09:13:47;;;;;;;1.33;0.88;;;14.90;1.00;;;;;;5083683;28;20256;-74
2022/03/21 09:16:14;;;;;;;2.08;1.10;;;15.20;1.00;;;;;;5092270;28;20213;-75
2022/03/21 09:18:42;;;;;;;4.38;1.30;;;15.50;1.00;;;;;;5082861;28;20698;-76
2022/03/21 09:21:09;;;;;;;0.98;0.65;;;16.10;1.00;;;;;;5076233;28;20681;-73
2022/03/21 09:23:37;;;;;;;0.77;0.57;;;15.80;1.00;;;;;;5081671;28;20562;-77
2022/03/21 09:26:08;;;;;;;2.33;0.80;;;16.50;1.00;;;;;;5079326;28;20229;-72
2022/03/21 09:28:37;;;;;;;0.93;0.80;;;16.10;1.00;;;;;;5092324;28;20626;-75
2022/03/21 09:31:06;;;;;;;2.58;0.80;;;15.70;1.00;;;;;;5085039;28;20300;-74
2022/03/21 09:33:33;;;;;;;1.10;0.95;;;15.30;1.00;;;;;;5084163;28;20206;-72
2022/03/21 09:36:01;;;;;;;3.15;0.88;;;16.00;1.00;;;;;;5080150;28;20577;-72
2022/03/21 09:38:28;;;;;;;1.85;1.00;;;15.70;1.00;;;;;;5080814;28;20210;-73
2022/03/21 09:40:55;;;;;;;2.83;1.13;;;16.00;1.00;;;;;;5071677;28;20739;-72
2022/03/21 09:43:24;;;;;;;1.65;0.82;;;16.60;1.00;;;;;;5088991;28;20618;-74
2022/03/21 09:45:57;;;;;;;2.17;1.85;;;15.80;1.00;;;;;;5092106;28;20201;-75
2022/03/21 09:48:27;;;;;;;2.63;0.70;;;15.80;1.00;;;;;;5092247;28;20244;-74
2022/03/21 09:50:56;;;;;;;4.07;1.02;;;16.10;1.00;;;;;;5090003;28;20695;-76
2022/03/21 09:53:24;;;;;;;2.60;1.45;;;15.90;1.00;;;;;;5072516;28;20236;-73
2022/03/21 09:55:51;;;;;;;1.70;1.17;;;16.30;1.00;;;;;;5081393;28;20205;-76
2022/03/21 09:58:20;;;;;;;1.63;1.02;;;16.40;1.00;;;;;;5080942;28;20210;-78
2022/03/21 10:00:49;;;;;;;4.80;1.27;;;16.40;1.00;;;;;;5090567;28;20280;-76
2022/03/21 10:03:17;;;;;;;1.13;1.02;;;16.20;1.00;;;;;;5087860;28;20197;-72
2022/03/21 10:05:46;;;;;;;2.58;1.70;;;16.10;1.00;;;;;;5112885;28;20228;-73
2022/03/21 10:08:22;;;;;;;3.17;1.75;;;16.40;1.00;;;;;;5108541;28;20197;-75
2022/03/21 10:10:57;;;;;;;7.45;1.63;;;16.90;1.00;;;;;;5090932;28;20707;-70
2022/03/21 10:13:26;;;;;;;1.90;1.45;;;17.20;1.00;;;;;;5091751;28;20273;-74
2022/03/21 10:16:08;;;;;;;2.65;1.05;;;17.40;1.00;;;;;;5090501;28;20296;-75
2022/03/21 10:18:37;;;;;;;2.47;1.17;;;17.30;1.00;;;;;;5078580;28;20295;-73
2022/03/21 10:21:12;;;;;;;9.38;1.83;;;18.30;1.00;;;;;;5090115;28;20206;-74
2022/03/21 10:23:39;;;;;;;1.85;1.25;;;17.30;1.00;;;;;;5075480;28;20211;-76
2022/03/21 10:26:25;;;;;;;3.45;1.67;;;18.30;1.00;;;;;;5073612;28;20240;-73
2022/03/21 10:28:54;;;;;;;2.78;1.27;;;17.70;1.00;;;;;;5083395;28;20203;-74
2022/03/21 10:31:35;;;;;;;11.40;2.30;;;18.00;1.00;;;;;;5082302;28;20202;-75
2022/03/21 10:34:06;;;;;;;3.58;1.00;;;17.60;1.00;;;;;;5078157;28;20204;-75
2022/03/21 10:36:33;;;;;;;3.40;1.67;;;18.00;1.00;;;;;;5074482;28;20347;-76
2022/03/21 10:39:10;;;;;;;1.73;1.50;;;16.30;1.00;;;;;;5081796;28;20345;-75
2022/03/21 10:41:39;;;;;;;3.85;1.45;;;15.90;1.00;;;;;;5076403;28;20738;-80
2022/03/21 10:44:07;;;;;;;6.50;1.35;;;15.80;1.00;;;;;;5070973;28;20245;-80
2022/03/21 10:46:35;;;;;;;2.13;1.60;;;15.80;1.00;;;;;;5089206;28;20217;-75
2022/03/21 10:49:06;;;;;;;4.90;1.35;;;15.90;1.00;;;;;;5087944;28;20281;-78
2022/03/21 10:51:50;;;;;;;3.80;1.45;;;15.80;1.00;;;;;;5078320;28;20217;-77
2022/03/21 10:54:38;;;;;;;8.60;1.98;;;16.10;1.00;;;;;;5074952;28;20210;-78
2022/03/21 10:57:06;;;;;;;4.93;1.67;;;15.90;1.00;;;;;;5074700;28;20266;-76
2022/03/21 10:59:34;;;;;;;3.70;2.28;;;15.90;1.00;;;;;;5079857;28;20225;-75
2022/03/21 11:02:12;;;;;;;2.70;1.20;;;15.60;1.00;;;;;;5080586;28;20343;-78
2022/03/21 11:04:43;;;;;;;3.20;1.60;;;15.30;1.00;;;;;;5071258;28;20572;-76
2022/03/21 11:07:12;;;;;;;4.53;1.65;;;15.60;1.00;;;;;;5077402;28;20672;-76
2022/03/21 11:09:40;;;;;;;1.98;1.70;;;16.00;1.00;;;;;;5091233;28;20260;-77
2022/03/21 11:12:08;;;;;;;3.28;1.70;;;16.10;1.00;;;;;;5090586;28;20207;-79
2022/03/21 11:14:38;;;;;;;4.55;1.73;;;15.60;1.00;;;;;;5080384;28;20216;-79
2022/03/21 11:17:07;;;;;;;3.13;2.08;;;15.80;1.00;;;;;;5076118;28;20563;-78
2022/03/21 11:19:35;;;;;;;5.13;2.47;;;15.60;1.00;;;;;;5089558;28;20266;-76
2022/03/21 11:22:04;;;;;;;4.40;2.30;;;15.80;1.00;;;;;;5077568;28;20593;-80
2022/03/21 11:24:34;;;;;;;5.75;1.73;;;15.50;1.00;;;;;;5090967;28;20233;-75
2022/03/21 11:27:15;;;;;;;4.93;2.15;;;15.50;1.00;;;;;;5088104;28;20297;-75
2022/03/21 11:30:00;;;;;;;3.95;2.75;;;15.40;1.00;;;;;;5070301;28;20205;-76
2022/03/21 11:32:36;;;;;;;3.80;2.30;;;15.60;1.00;;;;;;5070697;28;20661;-77
2022/03/21 11:35:10;;;;;;;2.95;1.67;;;15.60;1.00;;;;;;5083916;28;20213;-75
2022/03/21 11:37:40;;;;;;;3.47;2.67;;;15.60;1.00;;;;;;5085844;28;20205;-78
2022/03/21 11:40:32;;;;;;;3.72;2.65;;;15.70;1.00;;;;;;5079628;28;20609;-76
2022/03/21 11:43:34;;;;;;;4.18;2.67;;;16.00;1.00;;;;;;5079723;28;20285;-77
2022/03/21 11:46:27;;;;;;;11.27;2.55;;;15.90;1.00;;;;;;5076107;28;20197;-79
2022/03/21 11:48:54;;;;;;;3.40;2.33;;;15.60;1.00;;;;;;5081359;28;20202;-74
2022/03/21 11:51:35;;;;;;;5.45;2.42;;;15.90;1.00;;;;;;5089171;28;20217;-79
2022/03/21 11:54:07;;;;;;;5.55;2.30;;;15.80;1.00;;;;;;5089726;28;20569;-75
2022/03/21 11:56:56;;;;;;;3.78;1.92;;;15.50;1.00;;;;;;5089993;28;20198;-74
2022/03/21 11:59:52;;;;;;;4.57;2.42;;;15.60;1.00;;;;;;5083102;28;20267;-76
2022/03/21 12:02:57;;;;;;;10.20;3.15;;;15.60;1.00;;;;;;5081350;28;20680;-73
2022/03/21 12:05:50;;;;;;;4.22;2.58;;;15.60;1.00;;;;;;5078194;28;20209;-75
2022/03/21 12:08:51;;;;;;;3.38;2.30;;;15.50;1.00;;;;;;5080407;28;20615;-78
2022/03/21 12:11:59;;;;;;;3.83;2.15;;;15.60;1.00;;;;;;5077072;28;20748;-78
2022/03/21 12:14:40;;;;;;;4.53;2.75;;;16.00;1.00;;;;;;5087653;28;20216;-81
2022/03/21 12:17:33;;;;;;;5.60;2.35;;;15.80;1.00;;;;;;5077903;28;21075;-79
2022/03/21 12:20:04;;;;;;;4.03;2.42;;;15.60;1.00;;;;;;5070068;28;20585;-79
2022/03/21 12:22:43;;;;;;;4.20;2.80;;;15.70;1.00;;;;;;5072618;28;20213;-77
2022/03/21 12:25:13;;;;;;;3.65;2.63;;;15.70;1.00;;;;;;5075499;28;20574;-79
2022/03/21 12:27:42;;;;;;;5.72;2.60;;;15.70;1.00;;;;;;5084465;28;20212;-78
2022/03/21 12:30:32;;;;;;;4.95;2.38;;;15.70;1.00;;;;;;5089892;28;20217;-77
2022/03/21 12:33:01;;;;;;;4.43;2.78;;;15.60;1.00;;;;;;5089971;28;20298;-78
2022/03/21 12:35:56;;;;;;;11.55;3.75;;;15.70;1.00;;;;;;5089934;28;20676;-78
2022/03/21 12:38:26;;;;;;;3.85;2.40;;;15.90;1.00;;;;;;5083284;28;20293;-78
2022/03/21 12:40:55;;;;;;;6.43;3.30;;;15.90;1.00;;;;;;5085431;28;20233;-82
2022/03/21 12:43:25;;;;;;;4.03;3.15;;;15.60;1.00;;;;;;5093500;28;20197;-77
2022/03/21 12:46:07;;;;;;;5.82;3.33;;;15.90;1.00;;;;;;5093263;28;20239;-77
2022/03/21 12:48:36;;;;;;;7.05;3.08;;;15.60;1.00;;;;;;5091074;28;20266;-77
2022/03/21 12:51:05;;;;;;;5.35;2.97;;;15.80;1.00;;;;;;5074360;28;20829;-79
2022/03/21 12:53:37;;;;;;;4.03;2.30;;;15.90;1.00;;;;;;5074512;28;20220;-81
2022/03/21 12:56:07;;;;;;;8.35;3.45;;;15.40;1.00;;;;;;5071645;28;20202;-79
2022/03/21 12:58:37;;;;;;;6.20;3.22;;;15.30;1.00;;;;;;5073245;28;20275;-82
2022/03/21 13:01:04;;;;;;;4.18;2.85;;;15.80;1.00;;;;;;5072286;28;20238;-78
2022/03/21 13:03:32;;;;;;;5.65;2.72;;;15.70;1.00;;;;;;5073270;28;20202;-78
2022/03/21 13:11:31;;;;;;;4.65;2.85;;;15.30;1.00;;;;;;5073330;28;20692;-76
2022/03/21 13:14:02;;;;;;;4.68;2.97;;;15.50;1.00;;;;;;5072786;28;20622;-79
2022/03/21 13:16:31;;;;;;;4.72;3.30;;;15.30;1.00;;;;;;5073086;28;20203;-78
2022/03/21 13:18:59;;;;;;;6.80;3.75;;;15.30;1.00;;;;;;5072772;28;20205;-77
2022/03/21 13:21:27;;;;;;;6.82;3.83;;;15.30;1.00;;;;;;5072881;28;20246;-78
2022/03/21 13:23:54;;;;;;;4.93;3.35;;;15.50;1.00;;;;;;5072737;28;20209;-79
2022/03/21 13:26:23;;;;;;;2.97;2.67;;;15.80;1.00;;;;;;5072809;28;20674;-77
2022/03/21 13:28:51;;;;;;;7.18;2.88;;;15.50;1.00;;;;;;5072523;28;20248;-79
2022/03/21 13:31:21;;;;;;;3.38;2.85;;;15.40;1.00;;;;;;5072810;28;20268;-79
2022/03/21 13:33:53;;;;;;;5.15;2.95;;;15.50;1.00;;;;;;5072174;28;20210;-79
2022/03/21 13:36:23;;;;;;;4.03;3.22;;;15.70;1.00;;;;;;5072725;28;20198;-78
2022/03/21 13:38:51;;;;;;;5.35;3.10;;;15.70;1.00;;;;;;5072239;28;20252;-76
2022/03/21 13:41:20;;;;;;;4.90;2.85;;;15.80;1.00;;;;;;5072632;28;20739;-77